Hlavní strana
METAR-TAF:

METAR-TAF

Letiště :

Røros, Norsko

zeměpisná šířka: 62-35N, zeměpisná délka: 011-21E, výška: 626 m

Aktuální stav počasí

Zpráva byla vytvořena před 39 minutami, v 15:20 UTC
Jihozápadní vítr 10 kt, proměnlivý mezi jižním a západním
Teplota 20°C
Vlhkost vzduchu 46%
Tlak 1021 hPa
Viditelnost 10 km a více
Žádná oblačnost pod 1500 m, nevyskytují se cumulonimby.

METAR: ENRO 251520Z 22010KT 170V270 CAVOK 20/08 Q1021

Čas: 17:59 (15:59 UTC)

Předpověď počasí

Zpráva byla vytvořena před 1 hodinou a 59 minutami, v 14:00 UTC
Předpověď platná od 25 v 15 UTC do 25 v 20 UTC
Jihozápadní vítr 12 kt
Viditelnost 10 km a více
Skoro jasno ve výšce 3000 ft
Oblačno až skoro zataženo ve výšce 5000 ft
Změna
od 25 v 15 UTC do 25 v 17 UTC
vítr z různých směrů 5 kt

TAF: ENRO 251400Z 2515/2520 23012KT 9999 FEW030 BKN050 BECMG 2515/2517 VRB05KT

Stav a předpovědi počasí z více než 4 000 letišť (zprávy METAR a TAF).

Červené a žluté tečky na mapě představují dostupné meteorologické stanice.

Když kurzor umístíte na tečku, zobrazí se název stanice.

Pak kliknutím zobrazíte stav a předpověď počasí.

Chcete-li změnit mapu, kliknutím na zelené tlačítko se znaménkem +mapu přiblížíte, kliknutím na zelené tlačítko se znaménkem – mapu oddálíte a kliknutím na zelené šipky přejdete na sousední mapy.


METAR-TAF: